"WATCHING THE WEATHER TO PROTECT LIFE AND PROPERTY"


THERE ARE CURRENTLY NO WATCHES NOR WARNINGS


Aviation
Satellite (InfraRed)


KFLL 270353Z 35005KT 10SM SCT040 BKN100 20/15 A3017 RMK AO2 SLP214 T02000150
KMCO 270353Z 31006KT 10SM BKN250 12/04 A3024 RMK AO2 SLP239 T01170044
KMIA 270353Z 36007KT 10SM SCT045 21/14 A3017 RMK AO2 SLP216 T02110139
KTPA 270353Z 35003KT 10SM BKN260 11/07 A3026 RMK AO2 SLP247 T01060072
MDPP 270300Z 00000KT 9999 FEW018 23/21 Q1018
MDSD 270400Z 00000KT 9999 FEW016 23/20 Q1019
MKJS 270400Z 13003KT 9999 FEW024 24/14 Q1017
MTPP 270359Z AUTO /////KT 9000 ////// ///// Q//// A//// NOSIG
MUHA 270350Z 03010KT 9000 BKN025 22/19 Q1021
MYNN 270400Z VRB02KT 9999 FEW018 23/21 A3015
TAPA 270400Z 07006KT 030V120 9999 FEW021 24/18 Q1016 NOSIG
TFFF 270430Z AUTO 06004KT 9999 ////// 22/18 Q1015
TFFR 270430Z AUTO VRB01KT CAVOK 19/18 Q1016
TIST 270353Z AUTO 06005KT 10SM CLR 24/19 A3004 RMK AO2 SLP173 T02440189 402890233
TISX 270353Z AUTO 04005KT 10SM CLR 23/19 A3004 RMK AO2 SLP171 T02330189 403000233 TSNO $
TJSJ 270356Z 19003KT 10SM FEW036 24/20 A3006 RMK AO2 SLP177 T02440200 402890233
TKPK 270100Z 03009KT 9999 FEW019 24/19 Q1017
TNCA 270300Z 09017KT 9999 FEW018 25/22 Q1015 NOSIG
TNCB 270355Z AUTO 08012KT 9999 SCT025/// SCT028/// 25/21 Q1014
TNCC 270400Z 11008KT 070V130 9999 BKN017 24/22 Q1015 NOSIG
TNCE 270355Z AUTO 05009KT 020V080 //// // ///////// 24/19 Q1016 RE//
TNCM 270300Z 04004KT 9999 FEW018 25/19 Q1018
TQPF 262300Z 05004KT 9999 FEW020 24/19 Q1017
TUPJ 270200Z 05005KT 10SM FEW021 25/20 A3006 RMK Q1017 VIS 16KM